首页
METAR-TAF:

METAR-TAF

机场 :

Chisholm-Hibbing Airport

Hibbing, 明尼蘇達州, 美国

纬度: 47-23-12N, 经度: 092-50-20W, 海拔: 412米

当前天气观测

该预报发布于20分钟前的14:53 UTC
风速5节,风向西转西北
温度 13°C
湿度 77%
气压 1009 hPa
能見度: 16.1公里
阴天层高于1800英尺

METAR: KHIB 221453Z AUTO 29005KT 10SM OVC018 13/09 A2981 RMK AO2 SLP097 T01280094 50008

时间: 10:13 (15:13 UTC)

预报

该预报发布于3小时和47分钟前的11:26 UTC
预报有效从22日的 12点(UTC)到 23日的 12点(UTC)
风速8节,风向西转西北
能見度: 10公里
散云层高于1800英尺
多云层高于2500英尺
短暂存在
从 22日的 12点(UTC)到 22日的 15点(UTC)
多云层高于1800英尺
阴天层高于2500英尺
从 22日的 1700点(UTC)
风速8节,风向西转西北,有时为16节阵风
能見度: 10公里
散云层高于2000英尺
多云层高于4000英尺
从 22日的 2100点(UTC)
风速8节,风向西转西北
能見度: 10公里
多云层高于5000英尺
从 23日的 0000点(UTC)
风速4节,风向西北
能見度: 10公里
多云层高于6000英尺

TAF: KHIB 221126Z 2212/2312 29008KT P6SM SCT018 BKN025 TEMPO 2212/2215 BKN018 OVC025 FM221700 29008G16KT P6SM SCT020 BKN040 FM222100 30008KT P6SM BKN050 FM230000 31004KT P6SM BKN060

超过4000个机场的气象观测和天气预报(METAR&TAF报告)。

可查询的气象台以黄色和红色小点在地图上表示。

将鼠标移到小点上方,可查看气象台名称。

然后点击查看天气观测和预报。

如需切换地图:点击带黑十字的绿色按钮放大地图;点击带横线的绿色按钮缩小地图;或者点击绿色箭头查看邻近地区的地图。


METAR-TAF: